Time;durP1;ratioP1;P1;durP2;ratioP2;P2;SDS_P1;SDS_P2;PMS_P1;PMS_P2;Temp;Humidity;BMP_temperature;BMP_pressure;BME280_temperature;BME280_humidity;BME280_pressure;Samples;Min_cycle;Max_cycle;Signal;HPM_P1;HPM_P2
2022/06/13 00:00:35;;;;;;;3.20;2.60;;;18.60;61.80;;;;;;5097534;28;20443;-68
2022/06/13 00:03:03;;;;;;;5.27;2.27;;;18.60;61.80;;;;;;5097758;28;20464;-68
2022/06/13 00:05:30;;;;;;;4.93;2.53;;;18.50;61.70;;;;;;5098314;28;20447;-68
2022/06/13 00:07:57;;;;;;;4.93;3.10;;;18.60;61.90;;;;;;5097091;28;20443;-68
2022/06/13 00:10:23;;;;;;;8.20;2.40;;;18.50;62.00;;;;;;5096631;28;20450;-68
2022/06/13 00:12:50;;;;;;;5.80;2.57;;;18.40;62.20;;;;;;5096412;28;20468;-68
2022/06/13 00:15:17;;;;;;;4.93;2.90;;;18.30;62.60;;;;;;5096472;28;20482;-68
2022/06/13 00:17:44;;;;;;;5.90;3.10;;;18.20;63.20;;;;;;5096128;28;20805;-68
2022/06/13 00:20:14;;;;;;;5.03;2.53;;;18.10;63.80;;;;;;5096420;28;20465;-68
2022/06/13 00:22:41;;;;;;;4.23;2.93;;;18.10;65.40;;;;;;5096324;28;20466;-68
2022/06/13 00:25:09;;;;;;;4.73;2.80;;;18.00;65.70;;;;;;5096443;28;20444;-68
2022/06/13 00:27:36;;;;;;;6.57;3.20;;;18.00;65.90;;;;;;5096031;28;20443;-68
2022/06/13 00:30:05;;;;;;;4.80;3.27;;;18.00;65.60;;;;;;5096224;28;20444;-68
2022/06/13 00:32:31;;;;;;;6.87;3.30;;;17.90;65.50;;;;;;5096038;28;20864;-68
2022/06/13 00:34:58;;;;;;;5.13;2.47;;;17.80;65.70;;;;;;5095950;28;20467;-68
2022/06/13 00:37:26;;;;;;;5.20;2.10;;;17.70;66.40;;;;;;5096056;28;20480;-68
2022/06/13 00:39:53;;;;;;;4.13;2.93;;;17.70;66.80;;;;;;5096136;28;20812;-68
2022/06/13 00:42:23;;;;;;;4.53;2.90;;;17.70;67.30;;;;;;5095660;28;20987;-68
2022/06/13 00:45:07;;;;;;;5.90;3.20;;;17.60;67.20;;;;;;5096151;28;20436;-68
2022/06/13 00:47:34;;;;;;;5.60;2.80;;;17.60;67.50;;;;;;5096280;28;20434;-68
2022/06/13 00:50:04;;;;;;;4.30;2.80;;;17.50;67.30;;;;;;5096111;28;20444;-68
2022/06/13 00:52:40;;;;;;;5.03;2.77;;;17.50;67.60;;;;;;5096131;28;20464;-68
2022/06/13 00:55:10;;;;;;;4.50;3.00;;;17.50;68.00;;;;;;5096146;28;20424;-68
2022/06/13 00:57:37;;;;;;;4.90;2.87;;;17.40;68.20;;;;;;5096834;28;20443;-68
2022/06/13 01:00:08;;;;;;;4.87;2.67;;;17.40;68.40;;;;;;5096547;28;20450;-69
2022/06/13 01:02:37;;;;;;;7.33;3.50;;;17.30;69.10;;;;;;5096637;28;20459;-69
2022/06/13 01:05:04;;;;;;;5.30;3.30;;;17.30;69.50;;;;;;5096500;28;20945;-69
2022/06/13 01:07:33;;;;;;;7.70;4.10;;;17.30;70.10;;;;;;5097173;28;20439;-69
2022/06/13 01:12:45;;;;;;;5.77;3.00;;;17.30;70.00;;;;;;5097982;28;20438;-69
2022/06/13 01:15:27;;;;;;;3.90;2.67;;;17.30;69.90;;;;;;5095391;28;20454;-69
2022/06/13 01:18:07;;;;;;;8.03;3.30;;;17.40;70.80;;;;;;5095108;28;20969;-69
2022/06/13 01:20:44;;;;;;;3.10;2.77;;;17.40;69.80;;;;;;5095570;28;20415;-69
2022/06/13 01:23:59;;;;;;;4.60;3.23;;;17.30;69.70;;;;;;5095358;28;20493;-69
2022/06/13 01:26:59;;;;;;;5.17;3.20;;;17.30;70.00;;;;;;5095164;28;20420;-69
2022/06/13 01:29:44;;;;;;;7.33;3.33;;;17.30;70.10;;;;;;5095121;28;20447;-69
2022/06/13 01:32:23;;;;;;;6.00;3.30;;;17.30;70.30;;;;;;5095894;28;20803;-69
2022/06/13 01:35:03;;;;;;;5.20;3.13;;;17.30;71.00;;;;;;5094687;28;20462;-69
2022/06/13 01:37:39;;;;;;;5.60;3.40;;;17.30;71.20;;;;;;5094924;28;20501;-69
2022/06/13 01:40:15;;;;;;;6.03;3.87;;;17.30;71.30;;;;;;5094575;28;20797;-69
2022/06/13 01:42:53;;;;;;;4.77;3.23;;;17.20;71.10;;;;;;5094772;28;20463;-69
2022/06/13 01:45:31;;;;;;;4.67;3.20;;;17.20;71.80;;;;;;5094796;28;20428;-69
2022/06/13 01:48:06;;;;;;;7.30;4.57;;;17.20;72.20;;;;;;5094515;28;20427;-69
2022/06/13 01:50:41;;;;;;;6.13;3.73;;;17.10;72.80;;;;;;5094378;28;20901;-69
2022/06/13 01:53:14;;;;;;;9.53;3.30;;;17.20;73.20;;;;;;5094635;28;20455;-69
2022/06/13 01:55:45;;;;;;;6.83;3.80;;;17.20;73.20;;;;;;5094492;28;20442;-69
2022/06/13 01:58:20;;;;;;;6.23;3.60;;;17.20;73.20;;;;;;5094582;28;20482;-69
2022/06/13 02:00:54;;;;;;;7.67;3.40;;;17.20;73.20;;;;;;5094451;28;20435;-69
2022/06/13 02:03:27;;;;;;;7.60;3.40;;;17.20;73.20;;;;;;5094445;28;20439;-69
2022/06/13 02:05:59;;;;;;;4.37;3.40;;;17.20;72.70;;;;;;5094409;28;20437;-69
2022/06/13 02:08:31;;;;;;;7.93;3.10;;;17.20;73.20;;;;;;5094120;28;20438;-69
2022/06/13 02:11:01;;;;;;;5.60;3.90;;;17.20;74.10;;;;;;5094316;28;20428;-69
2022/06/13 02:13:34;;;;;;;7.93;5.13;;;17.10;73.20;;;;;;5094408;28;20443;-69
2022/06/13 02:16:08;;;;;;;10.67;3.93;;;17.00;73.90;;;;;;5093293;28;20467;-69
2022/06/13 02:18:45;;;;;;;4.70;3.60;;;17.00;74.70;;;;;;5094243;28;20457;-69
2022/06/13 02:21:14;;;;;;;8.53;4.53;;;17.00;75.00;;;;;;5094188;28;20468;-69
2022/06/13 02:23:47;;;;;;;9.17;4.40;;;17.00;75.80;;;;;;5093884;28;20447;-69
2022/06/13 02:26:20;;;;;;;10.00;3.80;;;17.00;76.10;;;;;;5094088;28;20432;-69
2022/06/13 02:28:51;;;;;;;10.10;4.40;;;17.00;76.40;;;;;;5094137;28;20432;-69
2022/06/13 02:31:21;;;;;;;7.30;4.80;;;17.00;76.40;;;;;;5094068;28;20467;-69
2022/06/13 02:33:57;;;;;;;6.63;4.03;;;17.10;76.30;;;;;;5094286;28;20826;-69
2022/06/13 02:36:30;;;;;;;6.10;3.83;;;17.10;76.10;;;;;;5094388;28;20479;-69
2022/06/13 02:39:03;;;;;;;7.03;3.87;;;17.10;75.80;;;;;;5094755;28;20992;-69
2022/06/13 02:41:38;;;;;;;8.40;4.60;;;17.30;75.70;;;;;;5095557;28;20983;-69
2022/06/13 02:44:09;;;;;;;5.40;3.97;;;17.20;75.20;;;;;;5093909;28;20435;-69
2022/06/13 02:46:43;;;;;;;6.33;4.00;;;17.20;75.40;;;;;;5093807;28;20441;-69
2022/06/13 02:49:15;;;;;;;4.27;3.27;;;17.20;75.40;;;;;;5093867;28;20786;-67
2022/06/13 02:51:47;;;;;;;11.23;3.50;;;17.30;75.50;;;;;;5093696;28;20463;-67
2022/06/13 02:54:20;;;;;;;6.50;3.80;;;17.30;75.30;;;;;;5093405;28;20893;-68
2022/06/13 02:59:56;;;;;;;6.40;3.50;;;17.20;75.10;;;;;;5093334;28;20518;-68
2022/06/13 03:02:28;;;;;;;9.10;3.43;;;17.20;75.20;;;;;;5093441;28;20471;-70
2022/06/13 03:05:01;;;;;;;4.97;3.57;;;17.20;75.00;;;;;;5093451;28;20428;-71
2022/06/13 03:07:34;;;;;;;10.53;5.60;;;17.30;75.00;;;;;;5093522;28;20455;-72
2022/06/13 03:10:08;;;;;;;6.43;3.60;;;17.30;74.50;;;;;;5093608;28;20435;-70
2022/06/13 03:12:40;;;;;;;8.37;3.83;;;17.30;74.70;;;;;;5093422;28;20467;-70
2022/06/13 03:15:13;;;;;;;10.07;3.93;;;17.30;75.00;;;;;;5093335;28;20431;-71
2022/06/13 03:17:45;;;;;;;10.57;4.83;;;17.30;75.20;;;;;;5093633;28;20464;-72
2022/06/13 03:20:19;;;;;;;7.93;3.90;;;17.30;75.40;;;;;;5093527;28;20437;-72
2022/06/13 03:22:49;;;;;;;6.03;4.17;;;17.20;75.40;;;;;;5093131;28;20972;-71
2022/06/13 03:25:24;;;;;;;5.90;3.20;;;17.20;75.60;;;;;;5093432;28;20465;-72
2022/06/13 03:27:56;;;;;;;22.43;4.30;;;17.20;75.60;;;;;;5096749;28;20476;-72
2022/06/13 03:30:26;;;;;;;11.10;4.33;;;17.20;75.60;;;;;;5097402;28;20432;-71
2022/06/13 03:35:50;;;;;;;14.73;3.83;;;17.20;75.40;;;;;;5089717;28;20427;-71
2022/06/13 03:38:22;;;;;;;7.80;4.10;;;17.20;76.10;;;;;;5097243;28;20567;-72
2022/06/13 03:40:53;;;;;;;7.70;3.93;;;17.30;76.30;;;;;;5097299;28;20427;-71
2022/06/13 03:43:25;;;;;;;12.37;5.03;;;17.30;75.30;;;;;;5097492;28;20432;-71
2022/06/13 03:45:56;;;;;;;11.67;4.60;;;17.30;75.10;;;;;;5097260;28;20434;-71
2022/06/13 03:48:28;;;;;;;16.73;3.80;;;17.40;75.10;;;;;;5097013;28;20459;-72
2022/06/13 03:51:00;;;;;;;9.50;4.13;;;17.40;76.00;;;;;;5096691;28;20829;-71
2022/06/13 03:53:33;;;;;;;14.33;4.80;;;17.30;74.70;;;;;;5097010;28;20485;-71
2022/06/13 03:56:06;;;;;;;14.60;5.53;;;17.30;75.60;;;;;;5096704;28;20929;-72
2022/06/13 03:58:38;;;;;;;16.90;5.00;;;17.20;75.70;;;;;;5096889;28;20420;-72
2022/06/13 04:01:11;;;;;;;11.60;4.40;;;17.20;75.60;;;;;;5096462;28;21170;-71
2022/06/13 04:03:38;;;;;;;16.33;4.90;;;17.20;75.90;;;;;;5097564;28;20440;-71
2022/06/13 04:06:27;;;;;;;11.70;3.73;;;17.20;76.30;;;;;;5096812;28;20466;-71
2022/06/13 04:08:54;;;;;;;9.83;4.60;;;17.20;76.40;;;;;;5096314;28;20466;-71
2022/06/13 04:11:29;;;;;;;13.63;4.93;;;17.20;76.80;;;;;;5096447;28;21008;-70
2022/06/13 04:14:02;;;;;;;9.07;4.27;;;17.20;76.00;;;;;;5096995;28;20426;-71
2022/06/13 04:16:42;;;;;;;8.93;3.97;;;17.20;76.10;;;;;;5096769;28;20463;-72
2022/06/13 04:19:21;;;;;;;13.10;5.20;;;17.10;76.40;;;;;;5096892;28;20435;-72
2022/06/13 04:21:58;;;;;;;6.53;4.60;;;17.10;76.80;;;;;;5097037;28;20468;-71
2022/06/13 04:24:38;;;;;;;9.87;4.37;;;17.10;76.70;;;;;;5097344;28;20428;-72
2022/06/13 04:27:13;;;;;;;11.73;5.90;;;17.10;77.40;;;;;;5096795;28;20428;-72
2022/06/13 04:29:44;;;;;;;12.00;4.30;;;17.20;79.40;;;;;;5097445;28;20432;-71
2022/06/13 04:32:15;;;;;;;17.93;5.93;;;17.20;79.90;;;;;;5096713;28;20876;-72
2022/06/13 04:34:46;;;;;;;12.77;4.70;;;17.20;80.50;;;;;;5096979;28;20460;-71
2022/06/13 04:37:15;;;;;;;13.63;5.20;;;17.30;80.90;;;;;;5095941;28;20463;-70
2022/06/13 04:39:43;;;;;;;19.20;5.20;;;17.30;80.70;;;;;;5095182;28;20451;-70
2022/06/13 04:42:12;;;;;;;19.10;4.97;;;17.20;81.00;;;;;;5095948;28;20463;-71
2022/06/13 04:44:41;;;;;;;21.73;4.87;;;17.20;80.90;;;;;;5096036;28;20455;-71
2022/06/13 04:47:08;;;;;;;18.10;6.00;;;17.20;81.50;;;;;;5096023;28;20447;-72
2022/06/13 04:49:42;;;;;;;20.70;4.43;;;17.30;82.10;;;;;;5095882;28;20458;-71
2022/06/13 04:52:13;;;;;;;18.67;5.00;;;17.30;82.00;;;;;;5095558;28;21018;-70
2022/06/13 04:54:47;;;;;;;16.63;4.40;;;17.30;81.30;;;;;;5095828;28;20424;-70
2022/06/13 04:57:17;;;;;;;17.33;5.00;;;17.30;81.40;;;;;;5095787;28;20459;-70
2022/06/13 04:59:44;;;;;;;13.53;4.40;;;17.40;81.40;;;;;;5096054;28;20448;-68
2022/06/13 05:02:15;;;;;;;11.90;4.70;;;17.40;82.00;;;;;;5095731;28;20490;-68
2022/06/13 05:04:42;;;;;;;15.77;5.77;;;17.50;83.40;;;;;;5095770;28;20432;-68
2022/06/13 05:07:13;;;;;;;14.97;5.33;;;17.60;83.60;;;;;;5095436;28;20947;-68
2022/06/13 05:09:44;;;;;;;14.93;4.83;;;17.70;84.20;;;;;;5095855;28;20464;-68
2022/06/13 05:12:16;;;;;;;17.93;4.33;;;17.70;84.10;;;;;;5096415;28;20476;-67
2022/06/13 05:14:48;;;;;;;18.90;4.87;;;17.80;84.40;;;;;;5096888;28;20432;-67
2022/06/13 05:17:46;;;;;;;14.00;4.80;;;17.90;84.10;;;;;;5097786;28;20474;-67
2022/06/13 05:20:18;;;;;;;11.93;4.50;;;17.90;83.40;;;;;;5095458;28;20439;-67
2022/06/13 05:22:59;;;;;;;18.60;5.47;;;18.00;82.90;;;;;;5094918;28;20934;-67
2022/06/13 05:25:43;;;;;;;15.53;4.77;;;18.00;82.70;;;;;;5095265;28;20431;-67
2022/06/13 05:28:12;;;;;;;10.93;4.80;;;18.10;82.90;;;;;;5095264;28;20438;-67
2022/06/13 05:30:41;;;;;;;7.23;4.60;;;18.00;82.20;;;;;;5095044;28;20446;-67
2022/06/13 05:33:09;;;;;;;7.30;4.03;;;18.00;80.70;;;;;;5094644;28;21004;-67
2022/06/13 05:35:43;;;;;;;10.17;4.67;;;18.00;80.10;;;;;;5094631;28;20452;-67
2022/06/13 05:38:15;;;;;;;7.53;4.27;;;17.80;79.80;;;;;;5094919;28;20471;-68
2022/06/13 05:40:43;;;;;;;11.80;5.47;;;17.90;80.80;;;;;;5094901;28;20424;-68
2022/06/13 05:43:11;;;;;;;10.80;5.13;;;17.80;81.10;;;;;;5094798;28;20470;-68
2022/06/13 05:45:39;;;;;;;8.13;5.40;;;17.80;80.80;;;;;;5094869;28;20447;-68
2022/06/13 05:48:11;;;;;;;9.60;5.23;;;17.80;81.00;;;;;;5094717;28;20431;-68
2022/06/13 05:50:37;;;;;;;10.70;5.40;;;17.80;80.90;;;;;;5094546;28;20432;-68
2022/06/13 05:53:04;;;;;;;13.00;5.57;;;17.90;80.30;;;;;;5094637;28;20810;-68
2022/06/13 05:55:31;;;;;;;6.93;4.87;;;17.90;80.00;;;;;;5094642;28;20443;-68
2022/06/13 05:58:00;;;;;;;7.80;5.00;;;17.90;79.40;;;;;;5094486;28;20479;-68
2022/06/13 06:00:31;;;;;;;10.07;5.10;;;17.90;79.70;;;;;;5094534;28;20448;-68
2022/06/13 06:02:58;;;;;;;9.33;5.10;;;17.90;80.10;;;;;;5094441;28;20471;-69
2022/06/13 06:05:25;;;;;;;11.50;5.47;;;18.00;81.20;;;;;;5094435;28;20444;-68
2022/06/13 06:07:52;;;;;;;12.23;5.77;;;17.90;80.90;;;;;;5094405;28;20436;-68
2022/06/13 06:10:21;;;;;;;9.63;5.07;;;17.90;80.70;;;;;;5094322;28;20448;-68
2022/06/13 06:12:48;;;;;;;15.37;6.13;;;18.00;80.80;;;;;;5094403;28;20463;-68
2022/06/13 06:15:16;;;;;;;6.57;5.03;;;18.10;80.60;;;;;;5094407;28;20440;-68
2022/06/13 06:17:43;;;;;;;18.23;4.87;;;18.20;80.50;;;;;;5094535;28;20475;-68
2022/06/13 06:20:15;;;;;;;10.47;5.10;;;18.30;80.80;;;;;;5094490;28;20448;-67
2022/06/13 06:22:42;;;;;;;13.77;5.70;;;18.40;80.20;;;;;;5094386;28;20463;-67
2022/06/13 06:25:10;;;;;;;7.20;5.17;;;18.50;81.30;;;;;;5093874;28;20969;-67
2022/06/13 06:27:37;;;;;;;13.67;6.27;;;18.60;81.90;;;;;;5094104;28;20445;-67
2022/06/13 06:30:05;;;;;;;12.60;6.07;;;18.70;79.60;;;;;;5093986;28;20444;-67
2022/06/13 06:32:33;;;;;;;10.90;6.90;;;18.70;80.90;;;;;;5093933;28;20499;-66
2022/06/13 06:34:59;;;;;;;15.67;6.87;;;18.80;80.60;;;;;;5093741;28;20464;-66
2022/06/13 06:37:26;;;;;;;10.83;5.97;;;18.80;81.50;;;;;;5093956;28;20463;-66
2022/06/13 06:39:53;;;;;;;16.67;6.30;;;18.80;80.90;;;;;;5093872;28;20443;-68
2022/06/13 06:42:20;;;;;;;12.23;6.67;;;18.90;80.90;;;;;;5093835;28;20467;-67
2022/06/13 06:44:46;;;;;;;14.27;6.50;;;18.90;80.90;;;;;;5093937;28;20424;-67
2022/06/13 06:47:13;;;;;;;11.40;6.10;;;19.00;80.70;;;;;;5093810;28;20448;-67
2022/06/13 06:49:41;;;;;;;15.33;7.57;;;19.10;81.30;;;;;;5093829;28;20430;-67
2022/06/13 06:52:09;;;;;;;17.27;8.17;;;19.20;81.20;;;;;;5093845;28;20463;-67
2022/06/13 07:00:06;;;;;;;12.73;8.90;;;18.90;82.80;;;;;;5093488;28;20404;-68
2022/06/13 07:02:34;;;;;;;21.20;9.10;;;19.00;83.30;;;;;;5093076;28;20473;-68
2022/06/13 07:05:06;;;;;;;16.33;10.43;;;19.10;83.90;;;;;;5093334;28;20979;-69
2022/06/13 07:07:33;;;;;;;15.93;9.90;;;19.20;83.70;;;;;;5093719;28;20428;-69
2022/06/13 07:09:59;;;;;;;16.17;8.50;;;19.30;83.20;;;;;;5093607;28;20440;-68
2022/06/13 07:12:26;;;;;;;17.97;9.23;;;19.40;81.90;;;;;;5093581;28;20467;-68
2022/06/13 07:14:53;;;;;;;14.20;9.00;;;19.40;80.50;;;;;;5093902;28;20462;-68
2022/06/13 07:17:21;;;;;;;20.30;10.90;;;19.30;81.50;;;;;;5093227;28;20991;-68
2022/06/13 07:19:48;;;;;;;19.00;11.10;;;19.20;82.30;;;;;;5093670;28;20479;-70
2022/06/13 07:22:19;;;;;;;16.33;10.70;;;19.20;83.20;;;;;;5093553;28;20470;-70
2022/06/13 07:24:47;;;;;;;22.57;11.60;;;19.30;83.60;;;;;;5093778;28;20431;-70
2022/06/13 07:27:14;;;;;;;19.77;12.57;;;19.50;83.60;;;;;;5093683;28;20474;-70
2022/06/13 07:29:42;;;;;;;19.10;12.13;;;19.60;83.60;;;;;;5094051;28;20806;-70
2022/06/13 07:32:14;;;;;;;21.43;12.70;;;19.80;82.80;;;;;;5094164;28;20475;-70
2022/06/13 07:34:43;;;;;;;17.63;11.20;;;19.90;82.10;;;;;;5093735;28;20456;-70
2022/06/13 07:37:13;;;;;;;19.73;12.30;;;19.90;81.00;;;;;;5094400;28;20522;-71
2022/06/13 07:39:41;;;;;;;17.73;11.47;;;19.90;82.10;;;;;;5095408;28;20444;-70
2022/06/13 07:42:18;;;;;;;17.10;11.63;;;20.00;83.40;;;;;;5095606;28;20467;-69
2022/06/13 07:44:45;;;;;;;24.43;11.57;;;20.10;83.10;;;;;;5095968;28;20436;-70
2022/06/13 07:47:18;;;;;;;18.87;11.30;;;20.10;82.40;;;;;;5096857;28;20436;-70
2022/06/13 07:49:44;;;;;;;17.13;11.13;;;20.20;82.80;;;;;;5096776;28;20431;-71
2022/06/13 07:52:11;;;;;;;23.23;10.83;;;20.40;82.20;;;;;;5097682;28;20499;-70
2022/06/13 07:54:38;;;;;;;15.27;9.70;;;20.40;78.80;;;;;;5096009;28;20455;-69
2022/06/13 07:57:06;;;;;;;23.20;10.10;;;20.50;78.80;;;;;;5093943;28;20447;-69
2022/06/13 07:59:33;;;;;;;15.90;8.53;;;20.60;79.70;;;;;;5093444;28;20478;-68
2022/06/13 08:02:01;;;;;;;12.43;7.83;;;20.80;78.90;;;;;;5093529;28;20827;-68
2022/06/13 08:04:29;;;;;;;13.77;7.70;;;21.00;75.50;;;;;;5093105;28;20447;-69
2022/06/13 08:06:56;;;;;;;13.77;7.33;;;21.20;74.60;;;;;;5093089;28;20451;-68
2022/06/13 08:09:22;;;;;;;11.20;6.90;;;21.30;75.20;;;;;;5093007;28;20442;-68
2022/06/13 08:11:51;;;;;;;16.43;7.47;;;21.60;75.70;;;;;;5092909;28;20865;-68
2022/06/13 08:14:19;;;;;;;15.93;7.63;;;21.80;72.80;;;;;;5094931;28;20924;-68
2022/06/13 08:16:46;;;;;;;10.93;6.30;;;21.90;71.40;;;;;;5096553;28;20453;-68
2022/06/13 08:19:13;;;;;;;11.07;6.40;;;22.10;70.00;;;;;;5096704;28;20472;-68
2022/06/13 08:21:40;;;;;;;13.23;6.87;;;22.30;68.80;;;;;;5096286;28;20468;-69
2022/06/13 08:24:07;;;;;;;9.73;5.47;;;22.50;66.40;;;;;;5096189;28;20943;-68
2022/06/13 08:26:34;;;;;;;10.77;5.57;;;22.60;66.00;;;;;;5096166;28;20894;-68
2022/06/13 08:29:02;;;;;;;16.67;4.97;;;22.90;66.20;;;;;;5096386;28;20458;-68
2022/06/13 08:31:32;;;;;;;13.87;6.00;;;23.10;63.60;;;;;;5096382;28;20554;-68
2022/06/13 08:33:58;;;;;;;13.40;5.80;;;23.20;62.50;;;;;;5096008;28;20455;-69
2022/06/13 08:36:25;;;;;;;7.30;4.63;;;23.40;61.90;;;;;;5096412;28;20454;-69
2022/06/13 08:38:52;;;;;;;11.23;5.10;;;23.50;58.40;;;;;;5096167;28;20478;-68
2022/06/13 08:41:30;;;;;;;11.67;5.00;;;23.50;57.20;;;;;;5096138;28;20517;-69
2022/06/13 08:44:10;;;;;;;10.97;4.90;;;23.50;57.50;;;;;;5095933;28;20795;-69
2022/06/13 08:46:49;;;;;;;10.10;5.10;;;23.60;57.20;;;;;;5095611;28;20927;-68
2022/06/13 08:49:23;;;;;;;8.47;4.67;;;23.70;56.00;;;;;;5096116;28;20453;-68
2022/06/13 08:51:57;;;;;;;13.93;5.53;;;23.70;55.60;;;;;;5096800;28;20805;-69
2022/06/13 08:54:29;;;;;;;9.30;4.97;;;23.60;55.90;;;;;;5096031;28;20443;-69
2022/06/13 08:56:56;;;;;;;9.67;4.27;;;23.50;55.80;;;;;;5096008;28;20439;-68
2022/06/13 08:59:34;;;;;;;15.73;4.43;;;23.50;55.70;;;;;;5095911;28;20475;-68
2022/06/13 09:02:07;;;;;;;8.37;4.77;;;23.40;56.10;;;;;;5095403;28;20893;-68
2022/06/13 09:04:38;;;;;;;9.30;4.27;;;23.30;56.50;;;;;;5095847;28;20438;-68
2022/06/13 09:07:10;;;;;;;8.80;3.93;;;23.20;57.10;;;;;;5095696;28;20443;-70
2022/06/13 09:09:46;;;;;;;6.87;4.10;;;23.00;57.60;;;;;;5095196;28;20497;-70
2022/06/13 09:12:17;;;;;;;7.27;3.53;;;22.70;56.60;;;;;;5095423;28;20475;-70
2022/06/13 09:14:48;;;;;;;8.83;3.70;;;22.50;55.80;;;;;;5095657;28;20435;-71
2022/06/13 09:17:21;;;;;;;11.77;4.73;;;22.30;56.70;;;;;;5095546;28;20428;-71
2022/06/13 09:19:55;;;;;;;7.63;4.30;;;22.20;57.40;;;;;;5095388;28;20471;-70
2022/06/13 09:22:27;;;;;;;13.40;4.07;;;22.20;57.80;;;;;;5095408;28;20478;-70
2022/06/13 09:25:01;;;;;;;12.80;5.07;;;22.50;59.30;;;;;;5094847;28;20432;-71
2022/06/13 09:27:34;;;;;;;6.07;3.47;;;22.80;57.90;;;;;;5095343;28;20424;-71
2022/06/13 09:30:06;;;;;;;10.00;3.83;;;23.10;57.00;;;;;;5095187;28;20476;-71
2022/06/13 09:32:39;;;;;;;10.30;4.00;;;23.20;52.80;;;;;;5095135;28;20460;-70
2022/06/13 09:35:13;;;;;;;8.87;4.27;;;23.20;53.70;;;;;;5094752;28;20467;-70
2022/06/13 09:37:48;;;;;;;7.60;4.10;;;23.20;53.90;;;;;;5095189;28;20438;-71
2022/06/13 09:40:16;;;;;;;5.07;3.20;;;23.20;53.00;;;;;;5094904;28;20427;-71
2022/06/13 09:42:56;;;;;;;8.73;3.20;;;23.00;53.60;;;;;;5094833;28;20471;-70
2022/06/13 09:45:40;;;;;;;7.47;3.40;;;22.90;53.20;;;;;;5094987;28;20439;-71
2022/06/13 09:48:17;;;;;;;9.90;2.80;;;22.80;52.50;;;;;;5094984;28;20423;-69
2022/06/13 09:50:52;;;;;;;7.87;3.47;;;22.80;53.90;;;;;;5094961;28;20431;-69
2022/06/13 09:53:26;;;;;;;9.43;3.43;;;23.00;54.00;;;;;;5094950;28;20432;-69
2022/06/13 09:55:59;;;;;;;8.63;3.40;;;23.40;53.20;;;;;;5095207;28;20439;-69
2022/06/13 09:58:40;;;;;;;7.80;2.80;;;23.80;53.80;;;;;;5094459;28;20465;-69
2022/06/13 10:01:10;;;;;;;5.70;2.70;;;24.50;51.70;;;;;;5094634;28;20435;-68
2022/06/13 10:03:50;;;;;;;6.10;3.10;;;25.00;48.00;;;;;;5094759;28;20444;-68
2022/06/13 10:06:25;;;;;;;12.23;3.07;;;25.30;46.50;;;;;;5094497;28;20935;-69
2022/06/13 10:09:01;;;;;;;7.50;2.97;;;25.60;44.90;;;;;;5094539;28;20420;-68
2022/06/13 10:11:36;;;;;;;8.20;3.57;;;25.50;45.40;;;;;;5094113;28;20542;-68
2022/06/13 10:14:20;;;;;;;8.97;3.63;;;25.40;45.40;;;;;;5094631;28;20427;-68
2022/06/13 10:16:55;;;;;;;8.40;3.00;;;25.20;45.90;;;;;;5094342;28;20787;-68
2022/06/13 10:19:36;;;;;;;7.60;3.10;;;25.00;45.40;;;;;;5094676;28;20467;-68
2022/06/13 10:22:09;;;;;;;9.70;2.70;;;24.90;46.10;;;;;;5094742;28;20585;-68
2022/06/13 10:24:46;;;;;;;8.27;2.87;;;24.90;47.50;;;;;;5095106;28;20436;-69
2022/06/13 10:27:22;;;;;;;6.00;2.33;;;25.30;47.60;;;;;;5095860;28;20439;-69
2022/06/13 10:30:23;;;;;;;5.70;2.53;;;26.20;46.20;;;;;;5096441;28;20459;-69
2022/06/13 10:33:15;;;;;;;7.27;3.07;;;27.20;42.10;;;;;;5095806;28;20470;-69
2022/06/13 10:35:49;;;;;;;4.83;2.20;;;27.70;40.50;;;;;;5093137;28;20460;-69
2022/06/13 10:38:28;;;;;;;5.90;2.10;;;27.70;36.50;;;;;;5093767;28;20979;-70
2022/06/13 10:40:55;;;;;;;4.20;2.13;;;27.50;38.60;;;;;;5093715;28;20904;-70
2022/06/13 10:43:23;;;;;;;4.53;2.00;;;27.30;37.10;;;;;;5093950;28;20813;-70
2022/06/13 10:45:49;;;;;;;3.60;1.67;;;26.90;37.10;;;;;;5093613;28;20443;-70
2022/06/13 10:48:21;;;;;;;5.70;2.00;;;26.50;38.00;;;;;;5093935;28;20448;-70
2022/06/13 10:50:54;;;;;;;4.17;1.93;;;26.10;39.40;;;;;;5094036;28;20431;-69
2022/06/13 10:53:24;;;;;;;11.47;2.30;;;25.80;40.40;;;;;;5093937;28;20427;-69
2022/06/13 10:55:55;;;;;;;4.83;1.70;;;25.80;41.90;;;;;;5093644;28;20432;-69
2022/06/13 10:58:26;;;;;;;4.60;2.00;;;26.30;40.70;;;;;;5094084;28;20439;-69
2022/06/13 11:01:09;;;;;;;4.13;1.70;;;27.10;38.30;;;;;;5093962;28;20799;-69
2022/06/13 11:03:37;;;;;;;4.60;2.00;;;28.40;36.00;;;;;;5094449;28;20431;-69
2022/06/13 11:06:07;;;;;;;6.07;1.87;;;29.10;34.00;;;;;;5094642;28;20432;-69
2022/06/13 11:08:35;;;;;;;5.07;1.97;;;29.10;34.20;;;;;;5095137;28;20431;-69
2022/06/13 11:11:04;;;;;;;4.73;2.27;;;29.20;32.70;;;;;;5095548;28;20448;-70
2022/06/13 11:13:34;;;;;;;4.30;2.00;;;29.70;32.70;;;;;;5095461;28;20439;-69
2022/06/13 11:24:33;;;;;;;5.37;2.40;;;32.00;30.30;;;;;;5093818;28;20546;-70
2022/06/13 11:29:47;;;;;;;5.03;2.10;;;31.90;29.20;;;;;;5093298;28;20450;-70
2022/06/13 11:32:25;;;;;;;5.13;2.70;;;31.50;30.60;;;;;;5093878;28;20462;-70
2022/06/13 11:34:51;;;;;;;6.07;2.60;;;32.00;30.20;;;;;;5093448;28;20463;-70
2022/06/13 11:37:23;;;;;;;4.80;2.37;;;32.60;28.60;;;;;;5093329;28;20932;-70
2022/06/13 11:39:51;;;;;;;5.40;2.47;;;32.10;27.50;;;;;;5093463;28;20474;-70
2022/06/13 11:42:22;;;;;;;4.37;2.03;;;31.40;28.80;;;;;;5093259;28;20477;-69
2022/06/13 11:44:53;;;;;;;4.57;2.00;;;30.80;30.30;;;;;;5093070;28;20893;-70
2022/06/13 11:47:21;;;;;;;3.30;1.80;;;30.40;30.70;;;;;;5094122;28;20427;-70
2022/06/13 11:49:52;;;;;;;5.80;1.90;;;29.70;30.00;;;;;;5097169;28;20423;-69
2022/06/13 11:55:21;;;;;;;5.10;2.20;;;28.60;33.50;;;;;;5097154;28;20418;-69
2022/06/13 11:57:53;;;;;;;3.50;2.03;;;28.10;34.00;;;;;;5097905;28;20755;-70
2022/06/13 12:00:28;;;;;;;3.20;1.90;;;27.80;35.60;;;;;;5096936;28;20464;-70
2022/06/13 12:03:04;;;;;;;8.33;2.67;;;27.60;36.40;;;;;;5096786;28;20469;-69
2022/06/13 12:05:34;;;;;;;4.90;2.00;;;27.60;35.50;;;;;;5097053;28;20423;-70
2022/06/13 12:08:04;;;;;;;5.57;1.60;;;27.50;35.60;;;;;;5096827;28;20447;-70
2022/06/13 12:10:33;;;;;;;3.57;2.07;;;27.40;36.10;;;;;;5097109;28;20420;-70
2022/06/13 12:13:00;;;;;;;4.57;2.00;;;27.50;37.10;;;;;;5096339;28;21002;-70
2022/06/13 12:15:36;;;;;;;5.13;1.50;;;28.00;36.90;;;;;;5096765;28;20440;-71
2022/06/13 12:18:10;;;;;;;3.83;2.00;;;29.20;35.70;;;;;;5097190;28;20484;-72
2022/06/13 12:20:44;;;;;;;2.63;1.33;;;30.40;30.70;;;;;;5096309;28;21006;-71
2022/06/13 12:23:20;;;;;;;3.60;1.60;;;30.80;28.80;;;;;;5096559;28;20562;-71
2022/06/13 12:25:53;;;;;;;3.47;1.87;;;30.50;29.70;;;;;;5096519;28;20427;-72
2022/06/13 12:28:22;;;;;;;4.17;1.23;;;30.40;30.90;;;;;;5096513;28;20440;-71
2022/06/13 12:30:57;;;;;;;3.03;1.70;;;31.00;29.40;;;;;;5096325;28;20440;-70
2022/06/13 12:33:39;;;;;;;2.70;1.70;;;31.80;28.10;;;;;;5095971;28;20459;-71
2022/06/13 12:36:21;;;;;;;2.23;1.50;;;32.90;27.60;;;;;;5097352;28;20747;-72
2022/06/13 12:39:23;;;;;;;2.50;1.63;;;34.00;27.70;;;;;;5096272;28;20437;-72
2022/06/13 12:42:01;;;;;;;4.23;1.70;;;34.70;24.30;;;;;;5096230;28;20458;-70
2022/06/13 12:44:42;;;;;;;4.80;1.90;;;35.30;23.80;;;;;;5096018;28;20800;-72
2022/06/13 12:47:28;;;;;;;4.03;1.63;;;35.90;23.10;;;;;;5096178;28;20441;-72
2022/06/13 12:50:16;;;;;;;3.60;1.90;;;36.30;22.40;;;;;;5095722;28;20902;-71
2022/06/13 12:52:58;;;;;;;1.43;1.30;;;36.20;21.90;;;;;;5096032;28;20462;-71
2022/06/13 12:55:39;;;;;;;2.23;1.53;;;35.70;22.60;;;;;;5096247;28;20436;-71
2022/06/13 12:58:34;;;;;;;5.40;2.20;;;35.50;23.20;;;;;;5095877;28;20904;-71
2022/06/13 13:01:07;;;;;;;4.33;2.53;;;35.50;24.00;;;;;;5096017;28;20479;-70
2022/06/13 13:04:05;;;;;;;3.83;2.07;;;34.60;23.70;;;;;;5096344;28;20434;-71
2022/06/13 13:06:40;;;;;;;2.87;2.03;;;33.60;25.30;;;;;;5096936;28;20462;-71
2022/06/13 13:09:34;;;;;;;2.60;1.70;;;32.70;25.00;;;;;;5098442;28;20439;-72
2022/06/13 13:12:21;;;;;;;2.90;1.77;;;33.10;26.40;;;;;;5097157;28;20470;-71
2022/06/13 13:14:55;;;;;;;5.20;1.80;;;33.70;25.30;;;;;;5095604;28;20445;-72
2022/06/13 13:17:31;;;;;;;4.57;2.17;;;34.40;25.50;;;;;;5095557;28;20427;-72
2022/06/13 13:20:07;;;;;;;6.53;2.17;;;34.90;23.80;;;;;;5095376;28;20466;-72
2022/06/13 13:22:41;;;;;;;6.80;2.70;;;35.50;22.60;;;;;;5095093;28;20463;-72
2022/06/13 13:25:24;;;;;;;4.50;1.83;;;36.30;22.30;;;;;;5095395;28;20435;-72
2022/06/13 13:28:02;;;;;;;4.70;1.27;;;37.00;22.40;;;;;;5095326;28;20484;-72
2022/06/13 13:30:33;;;;;;;3.63;1.67;;;37.90;20.60;;;;;;5095293;28;20181;-72
2022/06/13 13:33:16;;;;;;;3.83;1.52;;;38.10;19.70;;;;;;5094955;28;20221;-72
2022/06/13 13:35:47;;;;;;;1.98;1.40;;;38.70;20.80;;;;;;5094758;28;20593;-71
2022/06/13 13:38:21;;;;;;;3.60;1.48;;;39.40;19.30;;;;;;5095343;28;20200;-72